Time;durP1;ratioP1;P1;durP2;ratioP2;P2;SDS_P1;SDS_P2;PMS_P1;PMS_P2;Temp;Humidity;BMP_temperature;BMP_pressure;BME280_temperature;BME280_humidity;BME280_pressure;Samples;Min_cycle;Max_cycle;Signal;HPM_P1;HPM_P2
2024/01/02 00:02:08;;;;;;;14.63;8.77;;;;;;;7.59;100.00;62778.53;5086336;28;20216;-80
2024/01/02 00:04:34;;;;;;;11.25;9.32;;;;;;;7.58;100.00;62778.00;5076412;28;20313;-79
2024/01/02 00:07:02;;;;;;;11.65;9.63;;;;;;;7.58;100.00;62780.56;5076102;28;20275;-78
2024/01/02 00:09:28;;;;;;;12.95;9.32;;;;;;;7.59;100.00;62779.03;5088597;28;20282;-80
2024/01/02 00:11:57;;;;;;;8.68;6.65;;;;;;;7.59;100.00;62776.50;5089444;28;20204;-79
2024/01/02 00:14:28;;;;;;;9.43;6.57;;;;;;;7.64;100.00;62784.22;5087996;28;20224;-78
2024/01/02 00:16:55;;;;;;;6.57;5.93;;;;;;;7.63;100.00;62785.19;5082809;28;20219;-79
2024/01/02 00:19:22;;;;;;;7.85;7.03;;;;;;;7.61;100.00;62780.59;5070996;28;20256;-80
2024/01/02 00:21:49;;;;;;;6.28;5.63;;;;;;;7.66;100.00;62781.19;5082977;28;20252;-78
2024/01/02 00:24:15;;;;;;;5.95;5.30;;;;;;;7.59;100.00;62778.53;5086667;28;20258;-78
2024/01/02 00:26:42;;;;;;;4.30;4.00;;;;;;;7.57;100.00;62774.47;5085110;28;20205;-80
2024/01/02 00:29:15;;;;;;;4.88;4.22;;;;;;;7.45;100.00;62764.59;5097038;28;20216;-79
2024/01/02 00:31:46;;;;;;;4.45;4.05;;;;;;;7.52;100.00;62768.78;5096940;28;20229;-81
2024/01/02 00:34:13;;;;;;;4.63;3.85;;;;;;;7.68;100.00;62785.81;5079845;28;20236;-78
2024/01/02 00:36:40;;;;;;;3.67;3.38;;;;;;;7.67;100.00;62789.84;5100361;28;20200;-77
2024/01/02 00:39:07;;;;;;;3.55;3.25;;;;;;;7.63;100.00;62783.19;5087629;28;20380;-78
2024/01/02 00:41:37;;;;;;;3.47;3.20;;;;;;;7.65;100.00;62779.66;5092565;28;20204;-79
2024/01/02 00:44:05;;;;;;;3.78;3.40;;;;;;;7.76;100.00;62798.63;5091434;28;20263;-79
2024/01/02 00:46:34;;;;;;;3.90;3.17;;;;;;;7.73;100.00;62793.50;5089955;28;20197;-79
2024/01/02 00:49:00;;;;;;;3.15;2.95;;;;;;;7.80;100.00;62803.25;5090193;28;20224;-80
2024/01/02 00:51:29;;;;;;;3.65;3.35;;;;;;;7.85;100.00;62800.31;5081744;28;20201;-79
2024/01/02 00:53:58;;;;;;;3.35;3.05;;;;;;;7.89;100.00;62812.56;5099380;28;20543;-79
2024/01/02 00:56:25;;;;;;;3.45;3.25;;;;;;;7.87;100.00;62805.41;5086229;28;20247;-79
2024/01/02 00:58:53;;;;;;;3.53;3.33;;;;;;;7.94;100.00;62809.59;5100405;28;20531;-79
2024/01/02 01:01:20;;;;;;;3.28;3.08;;;;;;;8.01;100.00;62824.94;5096033;28;20243;-80
2024/01/02 01:03:50;;;;;;;3.42;3.13;;;;;;;8.00;100.00;62818.84;5098336;28;20204;-80
2024/01/02 01:06:18;;;;;;;3.78;3.47;;;;;;;8.01;100.00;62817.34;5089517;28;20201;-80
2024/01/02 01:08:46;;;;;;;3.17;2.97;;;;;;;7.94;100.00;62810.09;5087515;28;20200;-80
2024/01/02 01:11:14;;;;;;;3.20;2.90;;;;;;;7.90;100.00;62813.56;5088599;28;20205;-78
2024/01/02 01:13:41;;;;;;;3.22;3.03;;;;;;;7.95;100.00;62810.63;5083798;28;20204;-79
2024/01/02 01:16:09;;;;;;;3.38;3.15;;;;;;;7.76;100.00;62794.06;5092114;28;20204;-78
2024/01/02 01:18:37;;;;;;;3.30;3.10;;;;;;;7.82;100.00;62804.81;5090362;28;20200;-79
2024/01/02 01:21:06;;;;;;;3.20;3.00;;;;;;;7.84;100.00;62804.34;5097187;28;20240;-78
2024/01/02 01:23:34;;;;;;;3.45;2.90;;;;;;;7.81;100.00;62806.84;5108448;28;20349;-78
2024/01/02 01:26:03;;;;;;;2.95;2.75;;;;;;;7.81;100.00;62803.78;5092599;28;20280;-78
2024/01/02 01:28:31;;;;;;;2.80;2.70;;;;;;;7.70;100.00;62790.41;5083668;28;20216;-78
2024/01/02 01:30:59;;;;;;;3.67;3.25;;;;;;;7.82;100.00;62802.25;5104326;28;20280;-79
2024/01/02 01:33:26;;;;;;;4.38;4.05;;;;;;;7.79;100.00;62799.19;5080732;28;20209;-77
2024/01/02 01:35:56;;;;;;;3.22;3.03;;;;;;;7.88;100.00;62811.00;5084913;28;20230;-79
2024/01/02 01:38:24;;;;;;;3.55;3.25;;;;;;;7.93;100.00;62814.16;5091965;28;20469;-78
2024/01/02 01:40:52;;;;;;;3.10;2.95;;;;;;;7.99;100.00;62822.88;5099600;28;20281;-78
2024/01/02 01:43:21;;;;;;;3.10;2.80;;;;;;;7.89;100.00;62802.41;5096654;28;20228;-78
2024/01/02 01:45:48;;;;;;;3.50;3.20;;;;;;;7.98;100.00;62818.78;5090563;28;20236;-77
2024/01/02 01:48:15;;;;;;;3.28;2.88;;;;;;;7.97;100.00;62815.72;5090564;28;20201;-79
2024/01/02 01:50:43;;;;;;;3.55;3.03;;;;;;;7.97;100.00;62815.72;5088505;28;20571;-79
2024/01/02 01:53:09;;;;;;;3.30;2.40;;;;;;;8.03;100.00;62823.94;5078446;28;20201;-78
2024/01/02 01:55:37;;;;;;;2.20;2.10;;;;;;;8.05;100.00;62823.50;5097565;28;20220;-79
2024/01/02 01:58:04;;;;;;;2.65;2.42;;;;;;;8.11;100.00;62832.22;5087384;28;20230;-78
2024/01/02 02:00:31;;;;;;;2.28;2.17;;;;;;;8.09;100.00;62828.13;5090751;28;20246;-77
2024/01/02 02:02:58;;;;;;;2.60;2.40;;;;;;;8.07;100.00;62828.09;5090532;28;20189;-77
2024/01/02 02:05:26;;;;;;;2.53;2.40;;;;;;;8.06;100.00;62827.03;5088592;28;20221;-78
2024/01/02 02:07:53;;;;;;;2.40;2.08;;;;;;;8.10;100.00;62831.72;5087392;28;20200;-79
2024/01/02 02:10:20;;;;;;;2.45;2.30;;;;;;;8.09;100.00;62827.63;5100798;28;20224;-78
2024/01/02 02:12:48;;;;;;;2.78;2.20;;;;;;;7.99;100.00;62819.81;5069028;28;20251;-79
2024/01/02 02:15:15;;;;;;;3.15;1.92;;;;;;;8.03;100.00;62826.50;5092730;28;20216;-77
2024/01/02 02:17:42;;;;;;;3.75;2.20;;;;;;;8.03;100.00;62824.47;5084117;28;20192;-78
2024/01/02 02:20:09;;;;;;;1.77;1.67;;;;;;;8.04;100.00;62825.50;5090560;28;20247;-79
2024/01/02 02:22:36;;;;;;;2.00;1.90;;;;;;;8.00;100.00;62816.31;5091001;28;20493;-79
2024/01/02 02:25:06;;;;;;;2.65;2.45;;;;;;;7.94;100.00;62812.13;5092877;28;20262;-79
2024/01/02 02:27:32;;;;;;;2.67;2.42;;;;;;;7.96;100.00;62816.72;5092428;28;20205;-78
2024/01/02 02:29:59;;;;;;;2.45;2.28;;;;;;;7.94;100.00;62814.66;5092142;28;20216;-78
2024/01/02 02:32:26;;;;;;;3.47;3.17;;;;;;;7.87;100.00;62812.50;5087421;28;20264;-78
2024/01/02 02:34:53;;;;;;;2.72;2.53;;;;;;;7.83;100.00;62800.78;5084338;28;20263;-78
2024/01/02 02:37:20;;;;;;;3.72;3.40;;;;;;;7.80;100.00;62800.72;5093549;28;20363;-79
2024/01/02 02:39:47;;;;;;;3.15;2.95;;;;;;;7.80;100.00;62797.69;5088676;28;20247;-77
2024/01/02 02:42:15;;;;;;;4.32;3.63;;;;;;;7.76;100.00;62794.06;5080253;28;20204;-78
2024/01/02 02:44:43;;;;;;;4.63;3.78;;;;;;;7.75;100.00;62798.09;5087155;28;20220;-78
2024/01/02 02:47:10;;;;;;;5.13;4.63;;;;;;;7.76;100.00;62796.59;5086583;28;20213;-79
2024/01/02 02:49:37;;;;;;;4.45;4.05;;;;;;;7.75;100.00;62797.56;5085072;28;20247;-77
2024/01/02 02:52:04;;;;;;;3.97;3.67;;;;;;;7.77;100.00;62797.09;5073854;28;20226;-78
2024/01/02 02:54:31;;;;;;;3.75;3.45;;;;;;;7.69;100.00;62786.84;5085596;28;20498;-80
2024/01/02 02:56:59;;;;;;;3.92;3.30;;;;;;;7.42;100.00;62761.50;5085559;28;20201;-78
2024/01/02 02:59:27;;;;;;;3.30;3.10;;;;;;;7.41;100.00;62757.41;5094825;28;20519;-79
2024/01/02 03:01:55;;;;;;;3.63;3.33;;;;;;;7.43;100.00;62762.03;5083110;28;20236;-80
2024/01/02 03:04:22;;;;;;;3.85;3.55;;;;;;;7.44;100.00;62763.56;5080983;28;20232;-80
2024/01/02 03:06:49;;;;;;;3.63;3.30;;;;;;;7.37;100.00;62755.84;5089378;28;20205;-80
2024/01/02 03:09:16;;;;;;;3.65;3.20;;;;;;;7.49;100.00;62766.19;5078231;28;20224;-81
2024/01/02 03:11:44;;;;;;;3.47;3.20;;;;;;;7.21;100.00;62736.78;5099701;28;20203;-80
2024/01/02 03:14:11;;;;;;;4.13;3.17;;;;;;;7.20;100.00;62741.31;5100079;28;20231;-80
2024/01/02 03:16:39;;;;;;;3.47;3.22;;;;;;;7.14;100.00;62735.16;5086502;28;20197;-81
2024/01/02 03:19:06;;;;;;;3.05;2.70;;;;;;;7.12;100.00;62733.09;5083871;28;20998;-80
2024/01/02 03:21:33;;;;;;;3.50;3.20;;;;;;;7.19;100.00;62734.72;5071164;28;20224;-80
2024/01/02 03:24:02;;;;;;;3.05;2.85;;;;;;;7.11;100.00;62729.50;5089467;28;20224;-79
2024/01/02 03:26:29;;;;;;;2.85;2.65;;;;;;;7.12;100.00;62730.03;5103258;28;20221;-81
2024/01/02 03:28:56;;;;;;;3.05;2.85;;;;;;;7.20;100.00;62733.72;5100015;28;20203;-78
2024/01/02 03:31:23;;;;;;;3.60;3.30;;;;;;;7.18;100.00;62736.22;5091267;28;20486;-80
2024/01/02 03:33:52;;;;;;;3.83;3.53;;;;;;;7.18;100.00;62736.72;5086267;28;20445;-81
2024/01/02 03:36:19;;;;;;;3.75;3.45;;;;;;;7.28;100.00;62749.06;5088607;28;20523;-80
2024/01/02 03:38:45;;;;;;;4.40;4.00;;;;;;;7.30;100.00;62741.50;5085229;28;20300;-79
2024/01/02 03:41:12;;;;;;;3.95;3.65;;;;;;;7.29;100.00;62752.63;5086706;28;20287;-80
2024/01/02 03:43:42;;;;;;;3.67;3.40;;;;;;;7.16;100.00;62732.16;5073721;28;20209;-80
2024/01/02 03:46:10;;;;;;;4.55;3.10;;;;;;;7.03;100.00;62721.25;5069743;28;20197;-80
2024/01/02 03:48:36;;;;;;;3.40;3.15;;;;;;;6.99;100.00;62712.06;5081338;28;20244;-80
2024/01/02 03:51:05;;;;;;;4.03;3.65;;;;;;;6.99;100.00;62717.13;5070611;28;20217;-78
2024/01/02 03:53:32;;;;;;;4.15;3.85;;;;;;;7.07;100.00;62722.88;5085638;28;20223;-81
2024/01/02 03:55:59;;;;;;;4.15;3.80;;;;;;;7.15;100.00;62738.69;5103113;28;20241;-80
2024/01/02 03:58:27;;;;;;;4.22;3.80;;;;;;;7.13;100.00;62729.03;5086944;28;20219;-80
2024/01/02 04:00:55;;;;;;;4.88;4.47;;;;;;;7.19;100.00;62742.84;5091729;28;20331;-81
2024/01/02 04:03:22;;;;;;;4.32;3.92;;;;;;;7.18;100.00;62739.25;5077686;28;20502;-78
2024/01/02 04:05:50;;;;;;;5.32;4.13;;;;;;;7.15;100.00;62735.66;5090579;28;20228;-79
2024/01/02 04:08:18;;;;;;;4.40;4.00;;;;;;;6.93;100.00;62710.94;5083935;28;20214;-81
2024/01/02 04:10:45;;;;;;;3.80;3.50;;;;;;;7.03;100.00;62719.25;5087725;28;20250;-79
2024/01/02 04:13:13;;;;;;;3.50;3.25;;;;;;;7.07;100.00;62725.38;5085768;28;20231;-78
2024/01/02 04:15:40;;;;;;;2.55;2.33;;;;;;;7.09;100.00;62727.47;5089440;28;20225;-79
2024/01/02 04:18:08;;;;;;;3.17;2.47;;;;;;;7.13;100.00;62731.06;5083764;28;20224;-79
2024/01/02 04:20:35;;;;;;;2.45;2.25;;;;;;;6.96;100.00;62711.50;5084044;28;20248;-80
2024/01/02 04:23:02;;;;;;;2.67;2.47;;;;;;;6.93;100.00;62714.00;5076493;28;20224;-77
2024/01/02 04:25:30;;;;;;;2.80;2.60;;;;;;;6.95;100.00;62718.06;5082139;28;20230;-79
2024/01/02 04:27:58;;;;;;;2.85;2.65;;;;;;;6.95;100.00;62713.00;5079081;28;20197;-79
2024/01/02 04:30:25;;;;;;;3.08;2.90;;;;;;;6.95;100.00;62713.00;5075558;28;20221;-79
2024/01/02 04:32:51;;;;;;;2.83;2.63;;;;;;;7.01;100.00;62721.72;5077208;28;20216;-79
2024/01/02 04:35:18;;;;;;;2.88;2.67;;;;;;;6.92;100.00;62710.44;5099859;28;20225;-80
2024/01/02 04:37:45;;;;;;;3.42;3.13;;;;;;;7.02;100.00;62723.28;5085155;28;20485;-80
2024/01/02 04:40:12;;;;;;;2.83;2.63;;;;;;;6.95;100.00;62713.00;5085149;28;20258;-78
2024/01/02 04:42:41;;;;;;;3.58;2.78;;;;;;;7.00;100.00;62721.22;5080983;28;20209;-80
2024/01/02 04:45:09;;;;;;;3.20;3.00;;;;;;;6.99;100.00;62717.66;5091377;28;20219;-80
2024/01/02 04:47:36;;;;;;;4.03;2.90;;;;;;;6.79;100.00;62696.50;5102341;28;20361;-80
2024/01/02 04:50:04;;;;;;;4.03;3.55;;;;;;;6.77;100.00;62691.91;5076174;28;20235;-79
2024/01/02 04:52:31;;;;;;;4.00;3.60;;;;;;;6.69;100.00;62683.66;5105354;28;20200;-82
2024/01/02 04:55:00;;;;;;;2.30;2.20;;;;;;;6.72;100.00;62689.28;5093611;28;20229;-79
2024/01/02 04:57:27;;;;;;;3.22;2.92;;;;;;;6.79;100.00;62693.97;5087396;28;20216;-80
2024/01/02 04:59:55;;;;;;;2.78;2.58;;;;;;;6.75;100.00;62692.88;5084130;28;20227;-79
2024/01/02 05:02:24;;;;;;;3.00;2.80;;;;;;;6.79;100.00;62697.03;5093813;28;20236;-80
2024/01/02 05:04:51;;;;;;;3.30;3.10;;;;;;;6.82;100.00;62697.06;5090532;28;20239;-79
2024/01/02 05:07:18;;;;;;;3.20;2.90;;;;;;;6.87;100.00;62707.28;5085364;28;20224;-79
2024/01/02 05:09:44;;;;;;;3.00;2.80;;;;;;;6.79;100.00;62694.50;5083803;28;20217;-80
2024/01/02 05:12:11;;;;;;;3.20;2.85;;;;;;;6.79;100.00;62699.56;5091303;28;20200;-79
2024/01/02 05:14:41;;;;;;;3.55;3.25;;;;;;;6.77;100.00;62694.97;5090964;28;20221;-80
2024/01/02 05:17:10;;;;;;;3.50;3.20;;;;;;;6.76;100.00;62693.41;5083336;28;20311;-80
2024/01/02 05:19:37;;;;;;;3.83;3.53;;;;;;;6.72;100.00;62689.81;5084976;28;20466;-80
2024/01/02 05:22:04;;;;;;;4.45;4.05;;;;;;;6.68;100.00;62683.13;5091340;28;20342;-80
2024/01/02 05:24:34;;;;;;;4.05;3.67;;;;;;;6.61;100.00;62680.47;5078419;28;20233;-79
2024/01/02 05:27:02;;;;;;;3.75;2.90;;;;;;;6.46;100.00;62655.41;5073722;28;20205;-80
2024/01/02 05:29:29;;;;;;;2.10;2.00;;;;;;;6.40;100.00;62654.25;5088969;28;20271;-80
2024/01/02 05:31:58;;;;;;;3.00;2.80;;;;;;;6.39;100.00;62657.78;5092951;28;20203;-80
2024/01/02 05:34:28;;;;;;;4.82;2.58;;;;;;;6.38;100.00;62654.75;5091720;28;20235;-79
2024/01/02 05:36:55;;;;;;;2.72;2.63;;;;;;;6.34;100.00;62650.09;5077773;28;20216;-79
2024/01/02 05:39:22;;;;;;;2.92;2.72;;;;;;;6.34;100.00;62652.63;5085194;28;20425;-80
2024/01/02 05:41:49;;;;;;;2.65;2.45;;;;;;;6.25;100.00;62638.81;5095470;28;20277;-81
2024/01/02 05:44:16;;;;;;;2.90;2.70;;;;;;;6.26;100.00;62642.38;5092071;28;20231;-80
2024/01/02 05:46:43;;;;;;;2.50;2.40;;;;;;;6.26;100.00;62646.91;5090089;28;20201;-80
2024/01/02 05:49:09;;;;;;;2.85;2.50;;;;;;;6.17;100.00;62630.56;5091623;28;20220;-79
2024/01/02 05:51:38;;;;;;;2.90;2.70;;;;;;;6.18;100.00;62633.63;5086675;28;20235;-79
2024/01/02 05:54:05;;;;;;;3.75;2.60;;;;;;;5.93;100.00;62605.81;5092028;28;20582;-81
2024/01/02 05:56:32;;;;;;;2.58;2.40;;;;;;;5.91;100.00;62603.75;5097259;28;20197;-78
2024/01/02 05:58:59;;;;;;;2.53;2.33;;;;;;;5.92;100.00;62607.31;5079968;28;20242;-77
2024/01/02 06:01:26;;;;;;;2.63;2.42;;;;;;;5.86;100.00;62598.63;5082137;28;20251;-80
2024/01/02 06:03:53;;;;;;;1.85;1.75;;;;;;;5.76;100.00;62595.88;5091029;28;20211;-78
2024/01/02 06:06:20;;;;;;;2.45;2.28;;;;;;;5.65;100.00;62582.00;5081506;28;20197;-78
2024/01/02 06:08:48;;;;;;;2.00;1.90;;;;;;;5.74;100.00;62591.81;5084165;28;20254;-80
2024/01/02 06:11:15;;;;;;;1.95;1.85;;;;;;;5.74;100.00;62586.75;5091378;28;20224;-78
2024/01/02 06:13:47;;;;;;;1.98;1.88;;;;;;;5.71;100.00;62586.16;5087690;28;20204;-81
2024/01/02 06:16:14;;;;;;;2.33;2.20;;;;;;;5.56;100.00;62573.25;5101988;28;20426;-79
2024/01/02 06:18:43;;;;;;;2.28;2.10;;;;;;;5.60;100.00;62574.31;5090140;28;20525;-78
2024/01/02 06:21:10;;;;;;;2.00;1.90;;;;;;;5.56;100.00;62575.25;5087689;28;20286;-77
2024/01/02 06:23:37;;;;;;;2.17;2.08;;;;;;;5.51;100.00;62565.56;5087340;28;20238;-78
2024/01/02 06:26:05;;;;;;;2.60;2.40;;;;;;;5.48;100.00;62562.47;5082618;28;20228;-77
2024/01/02 06:28:32;;;;;;;2.35;2.15;;;;;;;5.51;100.00;62562.53;5074302;28;20204;-78
2024/01/02 06:30:59;;;;;;;3.13;2.13;;;;;;;5.49;100.00;62566.03;5078522;28;20252;-77
2024/01/02 06:33:26;;;;;;;2.65;2.15;;;;;;;5.50;100.00;62564.56;5081540;28;20409;-77
2024/01/02 06:35:53;;;;;;;2.35;2.25;;;;;;;5.53;100.00;62560.06;5080643;28;20271;-77
2024/01/02 06:38:20;;;;;;;1.88;1.77;;;;;;;5.54;100.00;62573.22;5073794;28;20193;-78
2024/01/02 06:40:47;;;;;;;5.28;2.53;;;;;;;5.54;100.00;62566.13;5083675;28;20225;-75
2024/01/02 06:43:15;;;;;;;2.17;2.08;;;;;;;5.53;100.00;62567.13;5082458;28;20254;-75
2024/01/02 06:45:42;;;;;;;3.50;3.30;;;;;;;5.51;100.00;62563.03;5088165;28;20216;-76
2024/01/02 06:48:09;;;;;;;3.30;3.10;;;;;;;5.53;100.00;62564.59;5083716;28;20207;-74
2024/01/02 06:50:36;;;;;;;3.67;3.30;;;;;;;5.51;100.00;62563.03;5089303;28;20224;-76
2024/01/02 06:53:03;;;;;;;3.60;3.35;;;;;;;5.45;100.00;62554.34;5073674;28;20260;-75
2024/01/02 06:55:30;;;;;;;3.08;2.88;;;;;;;5.38;100.00;62549.16;5082092;28;20239;-76
2024/01/02 06:57:57;;;;;;;3.15;2.95;;;;;;;5.39;100.00;62553.22;5085735;28;20208;-75
2024/01/02 07:00:26;;;;;;;3.13;2.92;;;;;;;5.37;100.00;62551.16;5085078;28;20304;-76
2024/01/02 07:02:52;;;;;;;3.20;2.65;;;;;;;5.39;100.00;62550.16;5083524;28;20232;-76
2024/01/02 07:05:19;;;;;;;5.60;3.50;;;;;;;5.37;100.00;62550.63;5086609;28;20252;-77
2024/01/02 07:07:46;;;;;;;3.78;3.47;;;;;;;5.40;100.00;62551.22;5090192;28;20205;-76
2024/01/02 07:10:14;;;;;;;4.55;3.70;;;;;;;5.35;100.00;62549.09;5077319;28;20236;-76
2024/01/02 07:12:41;;;;;;;4.75;3.88;;;;;;;5.38;100.00;62554.72;5077737;28;20387;-74
2024/01/02 07:15:08;;;;;;;3.55;3.35;;;;;;;5.37;100.00;62548.63;5084821;28;20231;-76
2024/01/02 07:17:37;;;;;;;4.07;3.78;;;;;;;5.37;100.00;62545.56;5084363;28;20252;-76
2024/01/02 07:20:04;;;;;;;3.40;3.20;;;;;;;5.36;100.00;62544.56;5085241;28;20221;-75
2024/01/02 07:22:31;;;;;;;3.50;3.20;;;;;;;5.25;100.00;62543.84;5079742;28;20240;-76
2024/01/02 07:24:58;;;;;;;3.30;3.10;;;;;;;5.18;100.00;62529.06;5097440;28;20220;-76
2024/01/02 07:27:25;;;;;;;2.65;2.55;;;;;;;5.09;100.00;62524.81;5079225;28;20197;-76
2024/01/02 07:29:52;;;;;;;3.00;2.78;;;;;;;5.19;100.00;62530.09;5089284;28;20528;-77
2024/01/02 07:32:19;;;;;;;2.55;2.45;;;;;;;5.17;100.00;62533.06;5085451;28;20288;-76
2024/01/02 07:34:47;;;;;;;2.35;2.25;;;;;;;5.17;100.00;62530.03;5086040;28;20248;-75
2024/01/02 07:37:14;;;;;;;2.55;1.95;;;;;;;5.11;100.00;62526.88;5075337;28;20204;-76
2024/01/02 07:39:41;;;;;;;2.58;1.48;;;;;;;4.86;100.00;62496.09;5080015;28;20227;-77
2024/01/02 07:42:09;;;;;;;1.90;1.80;;;;;;;4.68;100.00;62480.09;5076916;28;20244;-77
2024/01/02 07:44:36;;;;;;;4.15;3.13;;;;;;;4.78;100.00;62487.34;5083767;28;20270;-78
2024/01/02 07:47:04;;;;;;;2.92;2.67;;;;;;;4.68;100.00;62478.09;5083378;28;20505;-77
2024/01/02 07:49:30;;;;;;;5.43;3.70;;;;;;;4.80;100.00;62489.41;5085664;28;20228;-77
2024/01/02 07:51:58;;;;;;;6.47;3.33;;;;;;;4.64;100.00;62471.44;5083094;28;20225;-81
2024/01/02 07:54:25;;;;;;;2.90;2.70;;;;;;;4.56;100.00;62467.75;5085461;28;20547;-79
2024/01/02 07:56:52;;;;;;;3.55;2.83;;;;;;;4.65;100.00;62475.00;5082343;28;20201;-79
2024/01/02 07:59:21;;;;;;;3.17;2.97;;;;;;;4.62;100.00;62473.94;5086046;28;20220;-79
2024/01/02 08:01:48;;;;;;;7.03;3.58;;;;;;;4.77;100.00;62486.84;5084240;28;20247;-77
2024/01/02 08:04:15;;;;;;;3.67;3.38;;;;;;;4.92;100.00;62501.78;5083359;28;20239;-80
2024/01/02 08:06:41;;;;;;;5.00;3.85;;;;;;;4.93;100.00;62500.28;5084399;28;20200;-79
2024/01/02 08:09:10;;;;;;;6.57;4.43;;;;;;;4.93;100.00;62505.84;5083722;28;20227;-77
2024/01/02 08:11:37;;;;;;;4.57;4.18;;;;;;;4.98;100.00;62508.47;5079676;28;20299;-77
2024/01/02 08:14:04;;;;;;;3.85;3.55;;;;;;;4.99;100.00;62511.50;5082028;28;20299;-80
2024/01/02 08:16:32;;;;;;;4.43;3.40;;;;;;;4.98;100.00;62513.00;5080426;28;20258;-78
2024/01/02 08:18:59;;;;;;;4.07;3.05;;;;;;;4.95;100.00;62507.38;5074150;28;20563;-77
2024/01/02 08:21:26;;;;;;;4.15;3.88;;;;;;;5.00;100.00;62510.00;5079519;28;20243;-77
2024/01/02 08:23:53;;;;;;;4.60;4.22;;;;;;;4.96;100.00;62506.41;5075286;28;20264;-78
2024/01/02 08:26:22;;;;;;;4.80;4.15;;;;;;;5.08;100.00;62521.28;5083745;28;20212;-79
2024/01/02 08:28:49;;;;;;;8.52;3.85;;;;;;;5.09;100.00;62521.81;5090633;28;20200;-77
2024/01/02 08:31:16;;;;;;;4.00;3.70;;;;;;;5.10;100.00;62527.88;5092113;28;20246;-77
2024/01/02 08:33:43;;;;;;;5.65;4.82;;;;;;;5.09;100.00;62521.81;5089246;28;20234;-77
2024/01/02 08:36:11;;;;;;;3.38;3.08;;;;;;;5.16;100.00;62526.50;5090789;28;20204;-76
2024/01/02 08:38:38;;;;;;;4.75;3.72;;;;;;;5.17;100.00;62530.56;5080367;28;20748;-77
2024/01/02 08:41:05;;;;;;;6.00;3.13;;;;;;;5.13;100.00;62525.91;5084128;28;20414;-78
2024/01/02 08:43:34;;;;;;;2.97;2.78;;;;;;;5.27;100.00;62540.84;5081538;28;20274;-78
2024/01/02 08:46:00;;;;;;;3.25;2.97;;;;;;;5.36;100.00;62547.06;5086618;28;20255;-78
2024/01/02 08:48:27;;;;;;;3.45;3.13;;;;;;;5.30;100.00;62545.94;5084430;28;20205;-77
2024/01/02 08:50:54;;;;;;;3.55;2.92;;;;;;;5.36;100.00;62550.13;5085375;28;20381;-77
2024/01/02 08:53:21;;;;;;;3.38;3.17;;;;;;;4.80;100.00;62492.44;5087487;28;20197;-78
2024/01/02 08:55:49;;;;;;;3.05;2.85;;;;;;;4.90;100.00;62502.75;5087191;28;20228;-77
2024/01/02 08:58:16;;;;;;;8.20;2.88;;;;;;;5.10;100.00;62523.34;5088105;28;20200;-77
2024/01/02 09:00:44;;;;;;;3.33;2.60;;;;;;;5.13;100.00;62528.94;5085289;28;20224;-77
2024/01/02 09:03:11;;;;;;;2.50;2.40;;;;;;;4.87;100.00;62501.69;5085795;28;20229;-77
2024/01/02 09:05:38;;;;;;;3.83;3.53;;;;;;;5.10;100.00;62522.81;5087378;28;20224;-78
2024/01/02 09:08:05;;;;;;;4.75;3.17;;;;;;;5.16;100.00;62529.00;5085716;28;20197;-77
2024/01/02 09:10:49;;;;;;;5.45;4.95;;;;;;;4.94;100.00;62506.34;5088425;28;20554;-77
2024/01/02 09:16:09;;;;;;;3.70;3.50;;;;;;;4.89;100.00;62498.66;5084134;28;20268;-78
2024/01/02 09:18:36;;;;;;;3.80;3.20;;;;;;;4.73;100.00;62480.19;5079918;28;20259;-77
2024/01/02 09:21:03;;;;;;;4.25;3.30;;;;;;;4.76;100.00;62488.34;5090631;28;20572;-77
2024/01/02 09:23:29;;;;;;;5.15;3.92;;;;;;;5.06;100.00;62513.66;5086936;28;20561;-77
2024/01/02 09:25:59;;;;;;;4.13;3.85;;;;;;;5.26;100.00;62536.78;5086595;28;20220;-77
2024/01/02 09:28:26;;;;;;;6.28;5.63;;;;;;;5.46;100.00;62559.91;5083628;28;20200;-77
2024/01/02 09:30:52;;;;;;;6.47;5.80;;;;;;;5.55;100.00;62569.69;5088649;28;20232;-76
2024/01/02 09:33:23;;;;;;;7.97;7.18;;;;;;;5.61;100.00;62577.88;5088262;28;20216;-77
2024/01/02 09:35:50;;;;;;;8.73;6.80;;;;;;;5.31;100.00;62542.44;5081269;28;20216;-77
2024/01/02 09:38:17;;;;;;;9.80;8.15;;;;;;;5.02;100.00;62517.63;5079961;28;20201;-76
2024/01/02 09:40:54;;;;;;;11.88;8.85;;;;;;;4.91;100.00;62500.72;5083076;28;20258;-76
2024/01/02 09:43:23;;;;;;;11.95;8.75;;;;;;;5.03;100.00;62515.63;5081362;28;20232;-76
2024/01/02 09:45:56;;;;;;;11.52;9.57;;;;;;;4.94;100.00;62506.34;5083367;28;20445;-77
2024/01/02 09:48:37;;;;;;;12.43;10.18;;;;;;;5.16;100.00;62527.00;5084008;28;20204;-76
2024/01/02 09:51:08;;;;;;;10.60;9.43;;;;;;;5.27;100.00;62537.81;5080587;28;20221;-77
2024/01/02 09:53:50;;;;;;;8.60;7.70;;;;;;;5.48;100.00;62557.44;5081768;28;20204;-77
2024/01/02 09:56:20;;;;;;;7.07;6.28;;;;;;;5.69;100.00;62586.63;5081713;28;20238;-76
2024/01/02 09:58:51;;;;;;;4.38;3.97;;;;;;;5.76;100.00;62598.41;5085962;28;20268;-75
2024/01/02 10:01:20;;;;;;;4.35;4.05;;;;;;;5.99;100.00;62612.00;5083191;28;20200;-76
2024/01/02 10:03:57;;;;;;;4.78;4.32;;;;;;;5.83;100.00;62601.09;5087858;28;20231;-77
2024/01/02 10:06:33;;;;;;;4.68;4.15;;;;;;;5.96;100.00;62605.88;5080325;28;20235;-76
2024/01/02 10:09:11;;;;;;;4.45;4.05;;;;;;;6.10;100.00;62622.81;5084841;28;20216;-76
2024/01/02 10:11:43;;;;;;;3.40;3.10;;;;;;;6.17;100.00;62630.56;5086225;28;20200;-77
2024/01/02 10:14:11;;;;;;;4.55;3.25;;;;;;;5.92;100.00;62607.31;5084921;28;20219;-77
2024/01/02 10:16:40;;;;;;;3.65;3.35;;;;;;;5.96;100.00;62610.91;5091202;28;20234;-76
2024/01/02 10:19:16;;;;;;;3.00;2.80;;;;;;;5.63;100.00;62577.94;5073630;28;20372;-75
2024/01/02 10:21:45;;;;;;;3.40;3.10;;;;;;;5.54;100.00;62568.16;5086229;28;20249;-75
2024/01/02 10:24:20;;;;;;;3.58;3.33;;;;;;;5.74;100.00;62589.28;5088241;28;20235;-76
2024/01/02 10:26:50;;;;;;;4.40;3.67;;;;;;;5.86;100.00;62598.63;5087450;28;20204;-75
2024/01/02 10:29:22;;;;;;;4.03;3.72;;;;;;;6.11;100.00;62626.41;5076285;28;20216;-75
2024/01/02 10:31:54;;;;;;;3.80;3.50;;;;;;;6.25;100.00;62645.88;5081293;28;20196;-75
2024/01/02 10:34:27;;;;;;;5.45;4.03;;;;;;;6.40;100.00;62656.78;5081077;28;20247;-76
2024/01/02 10:37:00;;;;;;;5.05;4.55;;;;;;;6.25;100.00;62636.28;5085746;28;20271;-75
2024/01/02 10:39:29;;;;;;;5.03;4.60;;;;;;;6.43;100.00;62656.84;5079040;28;20246;-76
2024/01/02 10:41:58;;;;;;;9.52;4.70;;;;;;;6.55;100.00;62676.81;5081305;28;20536;-77
2024/01/02 10:44:31;;;;;;;5.88;4.90;;;;;;;6.55;100.00;62671.75;5085590;28;20430;-76
2024/01/02 10:47:00;;;;;;;7.72;4.95;;;;;;;6.69;100.00;62684.19;5082932;28;20493;-78
2024/01/02 10:49:32;;;;;;;4.68;4.15;;;;;;;6.93;100.00;62708.41;5074060;28;20280;-76
2024/01/02 10:52:01;;;;;;;4.78;4.43;;;;;;;6.77;100.00;62689.91;5085117;28;20729;-76
2024/01/02 10:54:36;;;;;;;4.82;4.43;;;;;;;6.66;100.00;62683.59;5077393;28;20386;-76
2024/01/02 10:57:04;;;;;;;4.53;3.97;;;;;;;6.59;100.00;62670.81;5085946;28;20250;-77
2024/01/02 10:59:38;;;;;;;5.00;4.60;;;;;;;6.58;100.00;62675.38;5084559;28;20475;-78
2024/01/02 11:02:14;;;;;;;6.03;3.78;;;;;;;6.48;100.00;62662.53;5085190;28;20203;-76
2024/01/02 11:04:45;;;;;;;4.10;3.80;;;;;;;6.19;100.00;62632.63;5080832;28;20227;-76
2024/01/02 11:07:12;;;;;;;5.88;5.25;;;;;;;6.11;100.00;62624.38;5094008;28;20219;-76
2024/01/02 11:09:44;;;;;;;8.68;5.47;;;;;;;5.98;100.00;62615.50;5083371;28;20217;-76
2024/01/02 11:12:12;;;;;;;6.15;5.00;;;;;;;6.24;100.00;62637.78;5083395;28;20404;-76
2024/01/02 11:14:39;;;;;;;5.63;5.13;;;;;;;6.26;100.00;62639.84;5073835;28;20476;-77
2024/01/02 11:17:06;;;;;;;6.53;5.93;;;;;;;6.40;100.00;62656.78;5085018;28;20243;-77
2024/01/02 11:19:37;;;;;;;10.90;5.95;;;;;;;6.57;100.00;62674.34;5072493;28;20236;-77
2024/01/02 11:22:09;;;;;;;6.30;4.97;;;;;;;6.41;100.00;62654.78;5078961;28;20413;-76
2024/01/02 11:24:36;;;;;;;8.38;6.55;;;;;;;6.49;100.00;62663.53;5077408;28;20232;-75
2024/01/02 11:27:03;;;;;;;6.72;5.60;;;;;;;6.79;100.00;62699.56;5085114;28;20204;-76
2024/01/02 11:29:35;;;;;;;9.48;6.10;;;;;;;6.99;100.00;62717.66;5083172;28;20266;-77
2024/01/02 11:32:03;;;;;;;7.18;6.15;;;;;;;7.31;100.00;62755.22;5085367;28;20216;-77
2024/01/02 11:34:42;;;;;;;8.02;6.25;;;;;;;7.52;100.00;62769.28;5072632;28;20216;-76
2024/01/02 11:37:22;;;;;;;6.07;5.43;;;;;;;7.67;100.00;62786.78;5083772;28;20218;-76
2024/01/02 11:39:53;;;;;;;6.05;4.93;;;;;;;7.90;100.00;62811.03;5074435;28;20224;-78
2024/01/02 11:42:27;;;;;;;6.22;5.65;;;;;;;8.07;100.00;62825.56;5084076;28;20209;-79